• Join FlightAware (Why Join?)
  • Login
  • US Flag 
Trick or treat! (Boo!!) 
02:39PM EDT


 

Airport Tracker/Info


-or-


 

Live Flight TrackerFlight Track Log ✈ C6-ZBB ✈ 16-Aug-2014 ✈ PAKT / KTN - KBLI

Flight Track Log - Related Links

Times and Time Zones

All times are in EDT time to prevent confusion due to time zone crossing. See the C6-ZBB flight status page for this flight to view local times or setup timezone preferences in your user account.

Time Position Orientation Groundspeed Altitude Reporting Facility
EDT Latitude Longitude Course Direction KTS MPH feet Rate Location/Type
12:52PM 55.3667 -131.9000 135° Southeast 170 196 5,900  Level Vancouver Center
12:53PM 55.3167 -131.8667 159° South 190 219 7,400 1,380 Climbing Vancouver Center
12:54PM 55.2667 -131.8333 159° South 190 219 8,700 1,380 Climbing Vancouver Center
12:55PM 55.2333 -131.7667 131° Southeast 200 230 10,200 1,260 Climbing Vancouver Center
12:56PM 55.1833 -131.7167 150° Southeast 210 242 11,300 1,260 Climbing Vancouver Center
12:57PM 54.9555 -131.4308 135° Southeast  Level FlightAware Approximate
12:57PM 55.1167 -131.6833 164° South 210 242 12,700  Level Vancouver Center
12:58PM 55.0667 -131.6500 159° South 220 253 13,900 1,200 Climbing Vancouver Center
12:59PM 55.0000 -131.6500 180° South 220 253 15,100 1,200 Climbing Vancouver Center
01:00PM 54.9500 -131.6833 201° Southwest 220 253 16,300 900 Climbing Vancouver Center
01:01PM 54.8833 -131.7000 188° South 230 265 16,900 300 Climbing Vancouver Center
01:02PM 54.8167 -131.7167 188° South 250 288 17,000  Climbing Vancouver Center
01:03PM 54.7500 -131.7333 188° South 270 311 17,000 120 Level Vancouver Center
01:04PM 54.6667 -131.6500 150° Southeast 280 322 17,300 600 Climbing Vancouver Center
01:05PM 54.6167 -131.5500 131° Southeast 260 299 18,300 840 Climbing Vancouver Center
01:06PM 54.5833 -131.4667 125° Southeast 250 288 19,000 600 Climbing Vancouver Center
01:07PM 54.5333 -131.4000 142° Southeast 250 288 19,500 600 Climbing Vancouver Center
01:08PM 54.4667 -131.3000 139° Southeast 260 299 20,200 540 Climbing Vancouver Center
01:09PM 54.4167 -131.2333 142° Southeast 250 288 20,700 480 Climbing Vancouver Center
01:10PM 54.3667 -131.1333 131° Southeast 260 299 21,200 480 Climbing Vancouver Center
01:11PM 54.3167 -131.0333 131° Southeast 260 299 21,700 540 Climbing Vancouver Center
01:12PM 54.2667 -130.9833 150° Southeast 260 299 22,400 540 Climbing Vancouver Center
01:13PM 54.2167 -130.8833 131° Southeast 260 299 22,800 420 Climbing Vancouver Center
01:14PM 54.1667 -130.7833 130° Southeast 260 299 23,300 480 Climbing Vancouver Center
01:15PM 54.1000 -130.7167 150° Southeast 260 299 23,800 420 Climbing Vancouver Center
01:16PM 54.0500 -130.6333 136° Southeast 270 311 24,200 360 Climbing Vancouver Center
01:17PM 54.0000 -130.5333 130° Southeast 270 311 24,600 300 Climbing Vancouver Center
01:18PM 53.9333 -130.4667 150° Southeast 270 311 24,800 180 Climbing Vancouver Center
01:19PM 53.8833 -130.3667 130° Southeast 270 311 25,000 60 Climbing Vancouver Center
01:20PM 53.8333 -130.2833 135° Southeast 280 322 25,000  Level Vancouver Center
01:21PM 53.7667 -130.1833 138° Southeast 290 334 25,000  Level Vancouver Center
01:22PM 53.7000 -130.0833 138° Southeast 290 334 25,000  Level Vancouver Center
01:23PM 53.6333 -130.0167 149° Southeast 290 334 25,000  Level Vancouver Center
01:24PM 53.5833 -129.9333 135° Southeast 290 334 25,000  Level Vancouver Center
01:25PM 53.5167 -129.8333 138° Southeast 290 334 25,000  Level Vancouver Center
01:26PM 53.4500 -129.7500 143° Southeast 290 334 25,000  Level Vancouver Center
01:27PM 53.4000 -129.6500 130° Southeast 290 334 25,000  Level Vancouver Center
01:28PM 53.3500 -129.5667 135° Southeast 290 334 25,000  Level Vancouver Center
01:29PM 53.2833 -129.4667 138° Southeast 290 334 25,000  Level Vancouver Center
01:30PM 53.2167 -129.3833 143° Southeast 290 334 25,000  Level Vancouver Center
01:31PM 53.1500 -129.2833 138° Southeast 280 322 25,000  Level Vancouver Center
01:32PM 53.1000 -129.2167 141° Southeast 280 322 25,000  Level Vancouver Center
01:33PM 53.0500 -129.1333 135° Southeast 280 322 25,000  Level Vancouver Center
01:34PM 53.0000 -129.0500 135° Southeast 270 311 25,000  Level Vancouver Center
01:35PM 52.9333 -128.9500 138° Southeast 270 311 25,000  Level Vancouver Center
01:36PM 52.8667 -128.8667 143° Southeast 270 311 25,000  Level Vancouver Center
01:37PM 52.8167 -128.8000 141° Southeast 280 322 25,000  Level Vancouver Center
01:38PM 52.7667 -128.7167 135° Southeast 280 322 25,000  Level Vancouver Center
01:39PM 52.7000 -128.6167 138° Southeast 270 311 25,000  Level Vancouver Center
01:40PM 52.6500 -128.5333 135° Southeast 280 322 25,000  Level Vancouver Center
01:41PM 52.5833 -128.4667 149° Southeast 280 322 25,000  Level Vancouver Center
01:42PM 52.5167 -128.3833 143° Southeast 270 311 25,000  Level Vancouver Center
01:43PM 52.4833 -128.3000 123° Southeast 280 322 25,000  Level Vancouver Center
01:44PM 52.4167 -128.2000 138° Southeast 280 322 25,000  Level Vancouver Center
01:45PM 52.3500 -128.1167 143° Southeast 280 322 25,000  Level Vancouver Center
01:46PM 52.2833 -128.0500 149° Southeast 280 322 25,000  Level Vancouver Center
01:47PM 52.2333 -127.9667 134° Southeast 280 322 25,000  Level Vancouver Center
01:48PM 52.1667 -127.8833 143° Southeast 280 322 25,000  Level Vancouver Center
01:49PM 52.1333 -127.8000 123° Southeast 280 322 25,000  Level Vancouver Center
01:50PM 52.0667 -127.7167 142° Southeast 270 311 25,000  Level Vancouver Center
01:51PM 52.0000 -127.6167 137° Southeast 270 311 25,000  Level Vancouver Center
01:52PM 51.9500 -127.5667 148° Southeast 270 311 25,000  Level Vancouver Center
01:53PM 51.8833 -127.4833 142° Southeast 270 311 25,000  Level Vancouver Center
01:54PM 51.8333 -127.4000 134° Southeast 270 311 25,000  Level Vancouver Center
01:55PM 51.7667 -127.3000 137° Southeast 270 311 25,000  Level Vancouver Center
01:56PM 51.7333 -127.2167 123° Southeast 270 311 25,000  Level Vancouver Center
01:57PM 51.6667 -127.1333 142° Southeast 270 311 25,000  Level Vancouver Center
01:58PM 51.6000 -127.0833 155° Southeast 270 311 25,000  Level Vancouver Center
01:59PM 51.5500 -127.0000 134° Southeast 270 311 25,000  Level Vancouver Center
02:00PM 51.4833 -126.9167 142° Southeast 270 311 25,000  Level Vancouver Center
02:01PM 51.4333 -126.8333 134° Southeast 270 311 25,000  Level Vancouver Center
02:02PM 51.3667 -126.7667 148° Southeast 270 311 25,000  Level Vancouver Center
02:03PM 51.3000 -126.6833 142° Southeast 270 311 25,000  Level Vancouver Center
02:04PM 51.2667 -126.6000 123° Southeast 270 311 25,000  Level Vancouver Center
02:05PM 51.2000 -126.5167 142° Southeast 270 311 25,000  Level Vancouver Center
02:06PM 51.1500 -126.4333 134° Southeast 270 311 25,000  Level Vancouver Center
02:07PM 51.0833 -126.3833 155° Southeast 270 311 25,000  Level Vancouver Center
02:08PM 51.0333 -126.3000 134° Southeast 270 311 25,000  Level Vancouver Center
02:09PM 50.9667 -126.2167 142° Southeast 270 311 25,000  Level Vancouver Center
02:10PM 50.9167 -126.1500 140° Southeast 270 311 25,000  Level Vancouver Center
02:11PM 50.8500 -126.0667 142° Southeast 270 311 25,000  Level Vancouver Center
02:12PM 50.8000 -125.9833 133° Southeast 270 311 25,000  Level Vancouver Center
02:13PM 50.7333 -125.9167 148° Southeast 270 311 25,000  Level Vancouver Center
02:14PM 50.6667 -125.8500 148° Southeast 270 311 25,000  Level Vancouver Center
02:15PM 50.6167 -125.7667 133° Southeast 270 311 25,000  Level Vancouver Center
02:16PM 50.5667 -125.6833 133° Southeast 270 311 25,000  Level Vancouver Center
02:17PM 50.5167 -125.6333 148° Southeast 270 311 25,000  Level Vancouver Center
02:18PM 50.4500 -125.5500 141° Southeast 270 311 25,000  Level Vancouver Center
02:19PM 50.4000 -125.4667 133° Southeast 270 311 25,000  Level Vancouver Center
02:20PM 50.3333 -125.4000 147° Southeast 270 311 25,000  Level Vancouver Center
02:21PM 50.2833 -125.3333 140° Southeast 270 311 25,000  Level Vancouver Center
02:23PM 50.1500 -125.1833 144° Southeast 270 311 25,000  Level Vancouver Center
02:24PM 50.1000 -125.1000 133° Southeast 280 322 25,000  Level Vancouver Center
02:25PM 50.0333 -125.0500 154° Southeast 270 311 25,000  Level Vancouver Center
02:26PM 49.9667 -124.9667 141° Southeast 270 311 25,000  Level Vancouver Center
02:27PM 49.9167 -124.8833 133° Southeast 270 311 25,000  Level Vancouver Center
02:28PM 49.8500 -124.8333 154° Southeast 270 311 25,000  Level Vancouver Center
02:29PM 49.7833 -124.7500 141° Southeast 270 311 25,000 -60 Level Vancouver Center
02:30PM 49.7333 -124.7000 147° Southeast 270 311 24,900 -600 Descending Vancouver Center
02:31PM 49.6667 -124.6167 141° Southeast 290 334 23,800 -900 Descending Vancouver Center
02:32PM 49.6000 -124.5500 147° Southeast 300 345 23,100 -840 Descending Vancouver Center
02:33PM 49.5167 -124.4667 147° Southeast 300 345 22,200 -900 Descending Vancouver Center
02:35PM 49.3833 -124.2833 138° Southeast 310 357 20,400 -900 Descending Vancouver Center
02:36PM 49.3333 -124.2167 139° Southeast 310 357 19,600 -840 Descending Vancouver Center
02:37PM 49.2667 -124.1333 141° Southeast 310 357 18,800 -900 Descending Vancouver Center
02:38PM 49.1833 -124.0333 142° Southeast 310 357 17,900 -900 Descending Vancouver Center
02:39PM 49.1333 -123.9500 133° Southeast 310 357 17,000 -1,080 Descending Vancouver Center
02:40PM 49.0500 -123.8833 152° Southeast 310 357 15,800 -1,500 Descending Vancouver Center
02:41PM 48.9833 -123.8000 141° Southeast 320 368 14,100 -1,800 Descending Vancouver Center
02:42PM 48.9167 -123.7000 135° Southeast 320 368 12,300 -1,800 Descending Vancouver Center
02:43PM 48.8500 -123.6167 141° Southeast 320 368 10,500 -1,980 Descending Vancouver Center
02:44PM 48.7667 -123.5500 152° Southeast 310 357 8,400 -1,680 Descending Vancouver Center
02:45PM 48.7167 -123.4667 132° Southeast 280 322 7,200 -1,260 Descending Vancouver Center
02:46PM 48.7167 -123.3667 90° East 250 288 5,900 -1,080 Descending Vancouver Center
02:47PM 48.7167 -123.2667 90° East 250 288 5,100 -780 Descending Vancouver Center
02:48PM 48.7500 -123.1667 63° Northeast 240 276 4,400 -960 Descending Vancouver Center
02:49PM 48.7667 -123.0667 76° East 250 288 3,200 -660 Descending Vancouver Center
02:50PM 48.7833 -122.9833 73° East 250 288 3,100 -60 Descending Vancouver Center
02:51PM 48.8167 -122.8833 63° Northeast 240 276 3,100 -300 Level Vancouver Center
02:52PM 48.8500 -122.8167 53° Northeast 240 276 2,500 -540 Descending Vancouver Center
02:53PM 48.8833 -122.7333 59° Northeast 230 265 2,100 -240 Descending Vancouver Center
02:54PM 48.9333 -122.6500 48° Northeast 220 253 2,100  Level Vancouver Center
02:55PM 48.9333 -122.5500 90° East 220 253 2,100 -60 Level Vancouver Center
02:56PM 48.9167 -122.5000 117° Southeast 180 207 2,000  Descending Vancouver Center
02:57PM 48.8833 -122.5333 213° Southwest 160 184 2,100 -420 Climbing Vancouver Center
02:58PM 48.8333 -122.5333 180° South 160 184 1,200 -840 Descending Vancouver Center
02:59PM 48.8000 -122.5333 180° South 140 161 500 -720 Descending Vancouver Center